createdAt,value
2023-01-06T00:02:18.432Z,10.45
2023-01-06T00:07:20.967Z,10.54
2023-01-06T00:12:23.345Z,10.57
2023-01-06T00:17:25.629Z,10.75
2023-01-06T00:22:27.950Z,10.66
2023-01-06T00:27:32.052Z,10.60
2023-01-06T00:32:34.485Z,10.51
2023-01-06T00:37:36.827Z,10.75
2023-01-06T00:42:38.958Z,10.74
2023-01-06T00:47:41.413Z,10.66
2023-01-06T00:52:43.706Z,10.70
2023-01-06T00:57:45.901Z,10.61
2023-01-06T01:02:48.941Z,10.81
2023-01-06T01:07:51.258Z,10.90
2023-01-06T01:12:53.613Z,10.80
2023-01-06T01:17:55.821Z,10.83
2023-01-06T01:22:58.141Z,11.00
2023-01-06T01:28:00.400Z,10.87
2023-01-06T01:33:02.637Z,10.82
2023-01-06T01:38:05.095Z,10.69
2023-01-06T01:43:12.394Z,10.66
2023-01-06T01:48:35.921Z,10.60
2023-01-06T01:53:50.175Z,10.51
2023-01-06T01:59:03.733Z,10.36
2023-01-06T02:04:06.599Z,10.20
2023-01-06T02:09:26.616Z,10.07
2023-01-06T02:14:29.397Z,9.80
2023-01-06T02:20:07.297Z,9.72
2023-01-06T02:25:28.708Z,9.57
2023-01-06T02:31:25.157Z,9.34
2023-01-06T02:36:34.498Z,9.10
2023-01-06T02:41:47.035Z,9.10
2023-01-06T02:47:05.015Z,8.97
2023-01-06T02:52:19.714Z,8.93
2023-01-06T02:57:36.880Z,8.70
2023-01-06T03:02:42.934Z,8.79
2023-01-06T03:07:47.040Z,8.56
2023-01-06T03:12:55.951Z,8.75
2023-01-06T03:17:59.128Z,8.73
2023-01-06T03:23:01.708Z,8.71
2023-01-06T03:28:04.129Z,8.67
2023-01-06T03:33:18.152Z,8.41
2023-01-06T03:39:11.497Z,8.60
2023-01-06T03:44:26.319Z,8.50
2023-01-06T03:49:35.578Z,8.39
2023-01-06T03:54:45.866Z,8.25
2023-01-06T03:59:55.791Z,8.15
2023-01-06T04:05:10.549Z,8.02
2023-01-06T04:10:15.105Z,7.95
2023-01-06T04:15:23.373Z,8.22
2023-01-06T04:20:30.193Z,8.21
2023-01-06T04:25:44.183Z,8.09
2023-01-06T04:30:58.884Z,8.17
2023-01-06T04:36:02.598Z,8.20
2023-01-06T04:41:05.338Z,7.93
2023-01-06T04:46:08.183Z,7.81
2023-01-06T04:51:11.730Z,8.10
2023-01-06T04:56:14.413Z,7.93
2023-01-06T05:01:16.837Z,7.97
2023-01-06T05:06:20.567Z,8.04
2023-01-06T05:11:25.393Z,8.07
2023-01-06T05:16:33.202Z,7.98
2023-01-06T05:21:35.622Z,7.82
2023-01-06T05:26:37.909Z,7.79
2023-01-06T05:31:40.234Z,7.72
2023-01-06T05:36:42.609Z,7.76
2023-01-06T05:41:45.510Z,7.74
2023-01-06T05:46:47.999Z,7.86
2023-01-06T05:51:50.373Z,7.94
2023-01-06T05:56:52.713Z,7.84
2023-01-06T06:01:54.983Z,7.64
2023-01-06T06:06:57.334Z,7.82
2023-01-06T06:11:59.658Z,7.78
2023-01-06T06:17:02.373Z,7.92
2023-01-06T06:22:04.771Z,7.74
2023-01-06T06:27:07.026Z,8.15
2023-01-06T06:32:09.471Z,7.99
2023-01-06T06:37:22.479Z,8.02
2023-01-06T06:42:26.614Z,8.11
2023-01-06T06:47:28.995Z,8.32
2023-01-06T06:52:31.190Z,8.19
2023-01-06T06:57:33.390Z,8.54
2023-01-06T07:02:35.939Z,8.40
2023-01-06T07:07:38.616Z,8.38
2023-01-06T07:13:13.598Z,8.63
2023-01-06T07:18:15.894Z,8.68
2023-01-06T07:23:18.226Z,8.74
2023-01-06T07:28:27.227Z,8.96
2023-01-06T07:33:30.009Z,9.26
2023-01-06T07:38:32.914Z,11.90
2023-01-06T07:43:35.419Z,16.69
2023-01-06T07:48:37.984Z,18.56
2023-01-06T07:53:43.372Z,21.33
2023-01-06T07:58:45.905Z,19.99
2023-01-06T08:03:48.164Z,19.44
2023-01-06T08:08:50.492Z,19.32
2023-01-06T08:13:52.888Z,18.55
2023-01-06T08:18:55.259Z,18.71
2023-01-06T08:23:57.711Z,19.84
2023-01-06T08:29:00.085Z,18.50
2023-01-06T08:34:02.390Z,17.69
2023-01-06T08:39:04.874Z,17.77
2023-01-06T08:44:08.155Z,17.85
2023-01-06T08:49:10.554Z,16.38
2023-01-06T08:54:14.888Z,17.10
2023-01-06T08:59:18.362Z,15.68
2023-01-06T09:04:20.886Z,17.02
2023-01-06T09:09:23.458Z,16.45
2023-01-06T09:14:25.960Z,17.16
2023-01-06T09:19:28.426Z,17.22
2023-01-06T09:24:30.797Z,18.18
2023-01-06T09:29:34.789Z,18.36
2023-01-06T09:34:37.195Z,18.18
2023-01-06T09:39:40.179Z,18.15
2023-01-06T09:44:59.200Z,18.02
2023-01-06T09:50:17.643Z,17.01
2023-01-06T09:55:29.020Z,16.98
2023-01-06T10:00:40.230Z,17.41
2023-01-06T10:06:07.816Z,16.52
2023-01-06T10:11:24.416Z,17.93
2023-01-06T10:16:46.579Z,16.68
2023-01-06T10:27:38.157Z,17.27
2023-01-06T10:32:42.841Z,17.19
2023-01-06T10:37:49.178Z,16.83
2023-01-06T10:43:04.115Z,17.44
2023-01-06T10:48:11.465Z,17.59
2023-01-06T10:53:15.879Z,16.69
2023-01-06T10:58:36.446Z,15.32
2023-01-06T11:03:43.393Z,14.44
2023-01-06T11:08:48.474Z,14.74
2023-01-06T11:13:53.738Z,14.01
2023-01-06T11:26:14.712Z,13.73
2023-01-06T11:31:22.251Z,13.52
2023-01-06T11:36:29.204Z,13.28
2023-01-06T11:41:36.852Z,13.01
2023-01-06T11:46:46.503Z,12.96
2023-01-06T11:51:50.055Z,13.40
2023-01-06T11:57:00.525Z,13.23
2023-01-06T12:02:02.911Z,13.36
2023-01-06T12:07:38.438Z,12.53
2023-01-06T12:12:40.813Z,12.38
2023-01-06T12:17:52.945Z,12.20
2023-01-06T12:22:59.079Z,12.09
2023-01-06T12:28:06.615Z,11.61
2023-01-06T12:33:40.084Z,11.34
2023-01-06T12:38:56.789Z,11.42
2023-01-06T12:44:18.131Z,11.62
2023-01-06T12:49:35.602Z,11.55
2023-01-06T12:54:38.571Z,10.99
2023-01-06T13:00:14.609Z,11.21
2023-01-06T13:05:26.843Z,10.98
2023-01-06T13:10:35.065Z,10.89
2023-01-06T13:15:41.086Z,10.88
2023-01-06T13:20:48.892Z,10.71
2023-01-06T13:26:09.714Z,10.79
2023-01-06T13:31:50.782Z,10.87
2023-01-06T13:37:22.459Z,10.51
2023-01-06T13:42:45.659Z,10.59
2023-01-06T13:47:50.892Z,10.68
2023-01-06T13:52:55.155Z,10.61
2023-01-06T13:57:59.268Z,10.47
2023-01-06T14:03:13.592Z,10.40
2023-01-06T14:08:19.870Z,10.07
2023-01-06T14:13:26.682Z,10.23
2023-01-06T14:18:34.857Z,10.04
2023-01-06T14:23:37.670Z,9.91
2023-01-06T14:28:40.012Z,10.08
2023-01-06T14:33:45.097Z,10.09
2023-01-06T14:38:51.884Z,10.27
2023-01-06T14:44:01.161Z,10.27
2023-01-06T14:49:06.423Z,9.79
2023-01-06T14:54:14.604Z,9.62
2023-01-06T14:59:16.851Z,9.96
2023-01-06T15:04:24.286Z,9.66
2023-01-06T15:09:26.843Z,9.60
2023-01-06T15:14:34.075Z,9.70
2023-01-06T15:19:36.980Z,9.24
2023-01-06T15:24:43.221Z,9.06
2023-01-06T15:29:57.312Z,8.84
2023-01-06T15:35:00.337Z,8.78
2023-01-06T15:40:05.059Z,8.56
2023-01-06T15:45:22.548Z,8.85
2023-01-06T15:55:51.659Z,8.76
2023-01-06T16:01:01.663Z,8.43
2023-01-06T16:06:12.994Z,8.37
2023-01-06T16:11:17.983Z,8.58
2023-01-06T16:16:20.450Z,8.34
2023-01-06T16:21:26.734Z,8.34
2023-01-06T16:26:33.255Z,8.30
2023-01-06T16:31:39.939Z,8.38
2023-01-06T16:36:42.619Z,8.43
2023-01-06T16:42:00.369Z,8.32
2023-01-06T16:47:02.975Z,7.93
2023-01-06T16:52:06.624Z,7.72
2023-01-06T16:57:11.888Z,7.44
2023-01-06T17:02:19.364Z,7.16
2023-01-06T17:07:22.180Z,7.04
2023-01-06T17:12:43.307Z,6.94
2023-01-06T17:17:45.633Z,7.02
2023-01-06T17:22:49.951Z,7.07
2023-01-06T17:27:56.097Z,6.49
2023-01-06T17:32:58.241Z,6.39
2023-01-06T17:38:08.260Z,6.32
2023-01-06T17:43:27.668Z,6.04
2023-01-06T17:48:30.204Z,5.91
2023-01-06T17:53:55.708Z,5.80
2023-01-06T17:59:05.596Z,5.65
2023-01-06T18:04:14.496Z,6.06
2023-01-06T18:09:23.699Z,6.27
2023-01-06T18:14:26.181Z,6.57
2023-01-06T18:19:37.998Z,6.81
2023-01-06T18:24:42.031Z,6.66
2023-01-06T18:29:44.930Z,6.52
2023-01-06T18:34:52.825Z,6.27
2023-01-06T18:40:02.744Z,6.04
2023-01-06T18:45:08.040Z,5.89
2023-01-06T18:50:26.072Z,5.52
2023-01-06T18:55:57.934Z,5.20
2023-01-06T19:01:03.067Z,4.94
2023-01-06T19:06:11.465Z,4.57
2023-01-06T19:11:20.131Z,4.35
2023-01-06T19:16:47.466Z,3.77
2023-01-06T19:21:50.944Z,3.95
2023-01-06T19:26:54.568Z,3.80
2023-01-06T19:32:00.074Z,3.71
2023-01-06T19:37:02.280Z,3.20
2023-01-06T19:42:27.389Z,3.24
2023-01-06T19:47:36.178Z,3.16
2023-01-06T19:52:40.692Z,2.99
2023-01-06T19:57:48.309Z,2.92
2023-01-06T20:02:57.139Z,2.62
2023-01-06T20:07:59.565Z,2.64
2023-01-06T20:13:01.683Z,2.46
2023-01-06T20:18:03.754Z,2.26
2023-01-06T20:23:07.222Z,1.92
2023-01-06T20:28:09.504Z,2.30
2023-01-06T20:33:14.459Z,1.82
2023-01-06T20:38:16.669Z,1.91
2023-01-06T20:43:22.300Z,1.93
2023-01-06T20:48:24.631Z,2.01
2023-01-06T20:53:32.044Z,1.61
2023-01-06T20:58:34.332Z,1.43
2023-01-06T21:03:39.717Z,1.06
2023-01-06T21:08:42.139Z,1.36
2023-01-06T21:13:44.812Z,1.26
2023-01-06T21:18:47.885Z,1.32
2023-01-06T21:23:49.985Z,1.18
2023-01-06T21:28:52.361Z,1.08
2023-01-06T21:33:59.552Z,1.26
2023-01-06T21:39:01.748Z,1.21
2023-01-06T21:44:04.161Z,1.44
2023-01-06T21:49:07.577Z,1.15
2023-01-06T21:54:19.166Z,1.21
2023-01-06T21:59:21.332Z,1.02
2023-01-06T22:04:23.903Z,1.03
2023-01-06T22:09:28.328Z,0.92
2023-01-06T22:14:31.902Z,1.18
2023-01-06T22:19:34.828Z,0.90
2023-01-06T22:24:37.017Z,1.05
2023-01-06T22:29:39.193Z,1.12
2023-01-06T22:34:44.840Z,0.90
2023-01-06T22:39:47.106Z,0.81
2023-01-06T22:44:50.774Z,0.52
2023-01-06T22:49:52.917Z,0.56
2023-01-06T22:54:55.359Z,0.71
2023-01-06T22:59:58.727Z,0.56
2023-01-06T23:05:00.824Z,0.45
2023-01-06T23:10:03.125Z,0.42
2023-01-06T23:15:06.709Z,0.46
2023-01-06T23:20:09.342Z,0.23
2023-01-06T23:25:11.943Z,0.47
2023-01-06T23:30:14.448Z,0.17
2023-01-06T23:35:16.745Z,0.43
2023-01-06T23:40:19.029Z,0.59
2023-01-06T23:45:21.328Z,0.32
2023-01-06T23:50:23.453Z,0.09
2023-01-06T23:55:25.832Z,0.12
